Time;durP1;ratioP1;P1;durP2;ratioP2;P2;SDS_P1;SDS_P2;PMS_P1;PMS_P2;Temp;Humidity;BMP_temperature;BMP_pressure;BME280_temperature;BME280_humidity;BME280_pressure;Samples;Min_cycle;Max_cycle;Signal;HPM_P1;HPM_P2
2021/05/07 00:01:47;;;;;;;2.33;1.75;;;11.20;68.90;;;10.74;53.56;93806.41;5028170;28;20290;-81
2021/05/07 00:04:17;;;;;;;1.67;1.30;;;11.30;69.00;;;10.74;53.57;93816.91;5050724;28;20289;-82
2021/05/07 00:06:44;;;;;;;3.03;1.58;;;11.20;69.00;;;10.69;53.51;93807.09;5037253;28;20218;-80
2021/05/07 00:09:11;;;;;;;1.58;1.38;;;11.20;68.90;;;10.67;53.74;93818.81;5054614;28;20211;-81
2021/05/07 00:11:37;;;;;;;1.88;1.60;;;11.20;69.00;;;10.71;53.24;93822.59;5029695;28;20203;-81
2021/05/07 00:14:05;;;;;;;1.75;1.63;;;11.20;69.00;;;10.71;54.27;93833.88;5047266;28;20219;-80
2021/05/07 00:16:31;;;;;;;1.60;1.50;;;11.20;69.40;;;10.72;54.98;93818.97;5067422;28;20262;-81
2021/05/07 00:18:58;;;;;;;1.65;1.55;;;11.20;69.70;;;10.72;54.51;93819.75;5018181;28;20284;-82
2021/05/07 00:21:38;;;;;;;1.70;1.60;;;11.20;69.60;;;10.74;54.04;93801.16;5029274;28;20687;-81
2021/05/07 00:24:05;;;;;;;1.52;1.42;;;11.20;69.50;;;10.82;53.85;93826.31;5037965;28;20223;-81
2021/05/07 00:26:33;;;;;;;2.17;1.80;;;11.20;69.60;;;10.86;54.20;93820.41;5050780;28;20287;-81
2021/05/07 00:28:59;;;;;;;1.95;1.50;;;11.30;69.70;;;10.90;53.91;93807.66;5034483;28;20274;-81
2021/05/07 00:31:26;;;;;;;2.08;1.70;;;11.30;69.60;;;10.96;54.13;93816.44;5036163;28;20233;-80
2021/05/07 00:33:53;;;;;;;2.20;1.55;;;11.30;69.80;;;10.98;54.03;93804.69;5037212;28;20222;-82
2021/05/07 00:36:20;;;;;;;2.17;1.60;;;11.40;69.80;;;11.02;53.84;93784.91;5053350;28;20213;-81
2021/05/07 00:38:46;;;;;;;2.85;1.65;;;11.40;69.70;;;11.00;53.74;93780.91;5054231;28;20230;-81
2021/05/07 00:41:13;;;;;;;2.58;1.70;;;11.40;69.70;;;11.04;54.52;93797.78;5039525;28;20210;-81
2021/05/07 00:43:41;;;;;;;2.20;1.65;;;11.50;69.80;;;11.04;54.76;93797.78;5062043;28;20223;-81
2021/05/07 00:46:10;;;;;;;4.85;2.15;;;11.40;69.80;;;11.04;54.85;93782.81;5053620;28;20207;-81
2021/05/07 00:48:39;;;;;;;3.40;1.90;;;11.50;70.00;;;11.06;55.17;93795.75;5019828;28;20285;-80
2021/05/07 00:51:05;;;;;;;2.03;1.83;;;11.50;70.10;;;11.09;55.64;93792.66;5016825;28;20286;-81
2021/05/07 00:53:32;;;;;;;2.13;1.60;;;11.50;70.30;;;11.12;55.24;93794.03;5018530;28;20219;-79
2021/05/07 00:55:59;;;;;;;1.90;1.80;;;11.50;70.30;;;11.14;55.33;93805.13;5044866;28;20236;-80
2021/05/07 00:58:26;;;;;;;1.92;1.80;;;11.60;70.40;;;11.15;55.37;93804.88;5034283;28;20245;-82
2021/05/07 01:00:53;;;;;;;2.75;1.88;;;11.50;70.30;;;11.16;56.26;93801.25;5030670;28;20222;-81
2021/05/07 01:03:23;;;;;;;3.22;2.00;;;11.60;70.70;;;11.21;55.93;93811.09;5037342;28;20707;-81
2021/05/07 01:05:52;;;;;;;2.70;1.83;;;11.70;70.80;;;11.23;55.66;93806.41;5036566;28;20291;-81
2021/05/07 01:08:20;;;;;;;2.45;1.85;;;11.60;70.60;;;11.23;55.52;93805.59;5053623;28;20231;-82
2021/05/07 01:10:53;;;;;;;1.75;1.50;;;11.60;70.70;;;11.27;55.29;93804.16;5053793;28;20227;-80
2021/05/07 01:13:20;;;;;;;2.35;1.90;;;11.60;70.50;;;11.27;55.85;93809.41;5037504;28;20215;-82
2021/05/07 01:15:52;;;;;;;2.00;1.77;;;11.70;70.70;;;11.26;55.98;93805.97;5053822;28;20306;-81
2021/05/07 01:18:23;;;;;;;4.05;1.80;;;11.70;70.60;;;11.30;55.18;93806.31;5032909;28;20756;-82
2021/05/07 01:20:51;;;;;;;5.00;2.67;;;11.70;70.60;;;11.31;55.71;93819.22;5038455;28;20203;-81
2021/05/07 01:23:18;;;;;;;3.45;1.83;;;11.80;70.70;;;11.29;55.97;93810.78;5017411;28;20220;-80
2021/05/07 01:25:45;;;;;;;3.63;1.60;;;11.70;70.60;;;11.33;55.13;93811.91;5022254;28;20343;-81
2021/05/07 01:28:14;;;;;;;2.10;1.70;;;11.70;70.60;;;11.32;55.24;93820.81;5044206;28;20219;-81
2021/05/07 01:30:46;;;;;;;2.00;1.80;;;11.80;70.70;;;11.33;55.15;93811.13;5039534;28;20207;-81
2021/05/07 01:33:31;;;;;;;3.55;1.92;;;11.70;70.60;;;11.29;56.13;93797.66;5006072;28;20219;-82
2021/05/07 01:35:58;;;;;;;2.20;1.80;;;11.80;70.80;;;11.29;55.56;93796.84;5017260;28;20204;-80
2021/05/07 01:38:25;;;;;;;2.63;2.10;;;11.70;70.60;;;11.28;55.10;93795.22;5033341;28;20709;-81
2021/05/07 01:40:54;;;;;;;3.13;1.83;;;11.70;70.40;;;11.25;55.24;93798.31;5046105;28;20202;-82
2021/05/07 01:43:26;;;;;;;3.47;2.20;;;11.80;70.50;;;11.18;55.47;93798.41;5037980;28;20704;-82
2021/05/07 01:45:59;;;;;;;4.00;2.20;;;11.70;70.40;;;11.11;56.30;93806.38;5042716;28;20218;-81
2021/05/07 01:48:26;;;;;;;2.60;1.95;;;11.70;70.50;;;11.11;56.73;93795.88;5035958;28;20226;-82
2021/05/07 01:50:52;;;;;;;2.20;1.80;;;11.70;71.00;;;11.13;56.10;93787.78;5049895;28;20669;-81
2021/05/07 01:53:24;;;;;;;2.90;1.90;;;11.70;70.90;;;11.14;55.82;93784.91;5019637;28;20214;-81
2021/05/07 01:55:51;;;;;;;1.77;1.50;;;11.70;70.80;;;11.17;55.62;93789.72;5003230;28;20286;-81
2021/05/07 01:58:32;;;;;;;3.03;2.05;;;11.60;70.70;;;11.21;55.84;93787.47;5035476;28;20613;-81
2021/05/07 02:00:59;;;;;;;1.88;1.60;;;11.70;70.80;;;11.23;55.78;93795.94;5012623;28;20207;-81
2021/05/07 02:03:26;;;;;;;2.00;1.80;;;11.70;70.70;;;11.26;56.52;93799.91;5017148;28;20222;-82
2021/05/07 02:05:57;;;;;;;3.20;1.90;;;11.60;71.00;;;11.29;55.97;93784.53;5020325;28;20662;-80
2021/05/07 02:08:25;;;;;;;1.50;1.40;;;11.70;70.90;;;11.32;55.44;93778.81;5021888;28;20214;-82
2021/05/07 02:10:52;;;;;;;2.00;1.58;;;11.70;70.80;;;11.35;55.24;93781.00;5036502;28;20329;-81
2021/05/07 02:13:19;;;;;;;3.45;1.80;;;11.70;70.70;;;11.38;55.06;93782.38;5053366;28;20222;-82
2021/05/07 02:15:50;;;;;;;2.88;1.80;;;11.70;70.70;;;11.41;55.25;93773.25;5031684;28;20188;-81
2021/05/07 02:18:19;;;;;;;2.78;1.70;;;11.70;70.60;;;11.41;55.25;93771.41;5019098;28;20655;-82
2021/05/07 02:20:50;;;;;;;2.03;1.40;;;11.80;70.60;;;11.44;55.35;93775.44;5020535;28;20218;-81
2021/05/07 02:23:17;;;;;;;2.00;1.50;;;11.80;70.50;;;11.45;55.18;93790.97;5049435;28;20224;-81
2021/05/07 02:25:46;;;;;;;2.50;1.73;;;11.80;70.50;;;11.48;55.20;93795.75;5054222;28;20622;-81
2021/05/07 02:28:20;;;;;;;2.63;1.60;;;11.80;70.50;;;11.47;55.10;93793.34;5021255;28;20223;-80
2021/05/07 02:30:48;;;;;;;2.22;1.60;;;11.80;70.30;;;11.49;55.13;93796.56;5020020;28;20263;-80
2021/05/07 02:33:14;;;;;;;1.40;1.30;;;11.90;70.70;;;11.52;55.01;93807.41;5029036;28;20218;-80
2021/05/07 02:35:41;;;;;;;2.05;1.77;;;11.90;70.70;;;11.53;54.94;93805.56;5038936;28;20257;-81
2021/05/07 02:38:10;;;;;;;1.80;1.50;;;11.90;70.60;;;11.54;54.85;93797.47;5055904;28;20227;-82
2021/05/07 02:40:37;;;;;;;1.85;1.52;;;11.90;70.50;;;11.56;55.29;93793.81;5034773;28;20198;-81
2021/05/07 02:43:04;;;;;;;1.95;1.65;;;11.90;70.70;;;11.56;55.40;93799.91;5045338;28;20313;-82
2021/05/07 02:45:35;;;;;;;1.40;1.30;;;11.90;70.70;;;11.57;55.08;93783.13;5036964;28;20211;-80
2021/05/07 02:48:03;;;;;;;1.60;1.50;;;11.90;70.70;;;11.60;54.64;93795.00;5023184;28;20222;-80
2021/05/07 02:50:30;;;;;;;1.85;1.50;;;11.90;70.60;;;11.57;55.40;93790.19;5019607;28;20219;-81
2021/05/07 02:52:56;;;;;;;2.10;1.67;;;11.90;70.60;;;11.60;55.13;93789.75;5006943;28;20712;-81
2021/05/07 02:55:24;;;;;;;1.65;1.50;;;12.00;70.70;;;11.59;56.30;93798.63;5036625;28;20207;-82
2021/05/07 02:57:51;;;;;;;1.63;1.50;;;12.00;70.70;;;11.60;55.40;93782.66;5035432;28;20243;-81
2021/05/07 03:00:21;;;;;;;1.55;1.45;;;12.00;70.80;;;11.60;55.72;93795.00;5018392;28;20196;-82
2021/05/07 03:02:48;;;;;;;1.50;1.40;;;12.00;70.90;;;11.61;55.33;93797.38;5032983;28;20314;-82
2021/05/07 03:05:15;;;;;;;1.40;1.30;;;12.00;70.80;;;11.61;55.77;93799.19;5019734;28;20267;-82
2021/05/07 03:07:42;;;;;;;1.42;1.33;;;12.00;70.90;;;11.60;55.91;93800.25;5019952;28;20265;-81
2021/05/07 03:10:09;;;;;;;1.90;1.40;;;12.00;70.90;;;11.60;56.23;93800.25;5051737;28;20581;-80
2021/05/07 03:12:36;;;;;;;2.08;1.48;;;12.00;71.20;;;11.54;56.38;93812.44;5038378;28;20637;-81
2021/05/07 03:15:05;;;;;;;2.30;1.60;;;12.00;70.90;;;11.56;56.42;93815.66;5035786;28;20575;-82
2021/05/07 03:17:31;;;;;;;1.40;1.30;;;12.00;71.30;;;11.56;56.14;93825.34;5038787;28;20247;-82
2021/05/07 03:19:58;;;;;;;1.50;1.40;;;12.10;71.30;;;11.56;55.79;93827.97;5038331;28;20210;-82
2021/05/07 03:22:25;;;;;;;1.52;1.40;;;12.10;71.30;;;11.52;56.48;93820.56;5055735;28;20696;-81
2021/05/07 03:24:52;;;;;;;1.40;1.30;;;12.00;71.30;;;11.54;55.96;93828.19;5038642;28;20191;-82
2021/05/07 03:27:19;;;;;;;2.15;1.55;;;11.90;71.10;;;11.53;56.02;93818.72;5046899;28;20227;-81
2021/05/07 03:29:47;;;;;;;1.98;1.27;;;12.00;71.10;;;11.53;56.21;93830.03;5029537;28;20238;-82
2021/05/07 03:32:14;;;;;;;1.65;1.55;;;12.00;71.10;;;11.50;55.95;93821.81;5038793;28;20631;-82
2021/05/07 03:34:41;;;;;;;1.35;1.25;;;11.90;71.00;;;11.45;56.02;93821.66;5037656;28;20211;-82
2021/05/07 03:37:08;;;;;;;2.90;1.40;;;11.90;70.90;;;11.38;56.15;93833.03;5040283;28;20239;-81
2021/05/07 03:39:35;;;;;;;1.40;1.30;;;11.90;70.90;;;11.30;56.20;93828.13;5033895;28;20220;-82
2021/05/07 03:42:02;;;;;;;2.25;1.42;;;11.90;70.90;;;11.18;56.22;93820.22;5026507;28;20295;-82
2021/05/07 03:44:28;;;;;;;1.40;1.30;;;11.80;70.90;;;11.15;56.57;93836.38;5047798;28;20200;-82
2021/05/07 03:46:55;;;;;;;1.25;1.15;;;11.80;70.90;;;11.07;56.55;93828.03;5058954;28;20645;-82
2021/05/07 03:49:21;;;;;;;1.25;1.15;;;11.70;71.00;;;11.05;56.09;93836.13;5053784;28;20214;-81
2021/05/07 03:51:48;;;;;;;1.40;1.30;;;11.60;70.90;;;11.02;56.40;93832.13;5054914;28;20237;-82
2021/05/07 03:54:14;;;;;;;1.40;1.30;;;11.60;71.10;;;11.01;56.72;93832.31;5054185;28;20270;-82
2021/05/07 03:56:41;;;;;;;1.40;1.30;;;11.60;71.30;;;10.97;57.19;93839.81;5036635;28;20215;-81
2021/05/07 03:59:08;;;;;;;1.20;1.10;;;11.50;71.50;;;10.98;56.82;93844.06;5036070;28;20644;-82
2021/05/07 04:01:35;;;;;;;1.30;1.20;;;11.50;71.50;;;11.01;56.35;93854.13;5035546;28;20293;-81
2021/05/07 04:04:05;;;;;;;1.67;1.30;;;11.50;71.40;;;10.98;56.44;93843.28;5028705;28;20309;-82
2021/05/07 04:06:35;;;;;;;1.92;1.20;;;11.50;71.50;;;11.02;57.26;93855.75;5053069;28;20707;-83
2021/05/07 04:09:15;;;;;;;1.20;1.10;;;11.50;71.70;;;10.98;57.12;93853.75;5037231;28;20222;-83
2021/05/07 04:14:16;;;;;;;1.42;1.30;;;11.50;71.80;;;11.03;57.19;93851.28;5069317;28;20225;-82
2021/05/07 04:16:43;;;;;;;1.40;1.30;;;11.50;71.90;;;11.08;57.46;93846.16;5023298;28;20215;-82
2021/05/07 04:19:10;;;;;;;1.30;1.20;;;11.50;71.90;;;11.13;57.05;93866.50;5037971;28;20233;-83
2021/05/07 04:21:36;;;;;;;1.42;1.30;;;11.50;71.90;;;11.12;57.73;93857.03;5071048;28;20704;-82
2021/05/07 04:24:03;;;;;;;1.20;1.10;;;11.60;72.30;;;11.17;57.48;93865.06;5036856;28;20253;-82
2021/05/07 04:26:30;;;;;;;1.58;1.45;;;11.60;72.30;;;11.26;57.64;93863.72;5034624;28;20218;-82
2021/05/07 04:28:56;;;;;;;1.25;1.20;;;11.70;72.30;;;11.32;57.02;93860.19;5018306;28;20227;-82
2021/05/07 04:31:23;;;;;;;1.70;1.20;;;11.60;72.10;;;11.34;57.22;93857.38;5038099;28;20199;-81
2021/05/07 04:33:51;;;;;;;1.00;1.00;;;11.70;72.30;;;11.45;56.90;93874.97;5041505;28;20680;-82
2021/05/07 04:36:17;;;;;;;2.38;1.30;;;11.80;72.20;;;11.46;56.70;93863.47;5049396;28;20679;-83
2021/05/07 04:38:44;;;;;;;1.08;1.08;;;11.90;72.20;;;11.54;56.77;93865.75;5063903;28;20212;-82
2021/05/07 04:41:10;;;;;;;1.30;1.20;;;11.90;72.10;;;11.57;56.50;93861.91;5035042;28;20248;-83
2021/05/07 04:43:37;;;;;;;2.78;1.40;;;11.90;71.90;;;11.61;56.51;93872.72;5018589;28;20223;-82
2021/05/07 04:46:03;;;;;;;1.30;1.20;;;11.90;71.90;;;11.61;56.24;93876.19;5024089;28;20302;-81
2021/05/07 04:48:30;;;;;;;1.30;1.20;;;11.90;71.80;;;11.62;56.02;93867.28;5037700;28;20603;-82
2021/05/07 04:50:56;;;;;;;1.65;1.30;;;12.00;71.80;;;11.65;56.85;93863.41;5034247;28;20204;-82
2021/05/07 04:53:22;;;;;;;1.35;1.20;;;12.00;71.90;;;11.71;56.97;93865.13;5022201;28;20211;-82
2021/05/07 04:55:49;;;;;;;1.23;1.13;;;12.00;72.10;;;11.79;56.91;93871.88;5035976;28;20578;-81
2021/05/07 04:58:16;;;;;;;1.23;1.13;;;12.00;72.20;;;11.87;56.39;93882.06;5037641;28;20223;-81
2021/05/07 05:00:43;;;;;;;2.45;1.27;;;12.10;72.10;;;11.96;56.41;93870.25;5034159;28;20202;-82
2021/05/07 05:03:10;;;;;;;2.05;1.10;;;12.10;72.10;;;12.11;56.05;93877.69;5034580;28;20219;-82
2021/05/07 05:05:37;;;;;;;1.55;1.10;;;12.30;72.20;;;12.25;55.91;93878.25;5036707;28;20229;-82
2021/05/07 05:08:04;;;;;;;1.25;1.15;;;12.30;71.90;;;12.30;55.62;93882.84;5036895;28;20254;-82
2021/05/07 05:10:31;;;;;;;1.45;1.10;;;12.40;71.60;;;12.35;55.34;93880.31;5036609;28;20203;-82
2021/05/07 05:12:58;;;;;;;1.00;1.00;;;12.50;71.50;;;12.33;55.03;93890.28;5036169;28;20215;-82
2021/05/07 05:15:24;;;;;;;29.15;15.23;;;12.60;71.10;;;12.29;54.77;93884.69;5037410;28;20199;-83
2021/05/07 05:17:51;;;;;;;16.40;10.70;;;12.60;71.00;;;12.23;54.88;93882.97;5027666;28;20225;-81
2021/05/07 05:20:18;;;;;;;8.68;6.43;;;12.70;70.80;;;12.30;54.73;93898.63;5030869;28;20233;-82
2021/05/07 05:22:46;;;;;;;4.63;4.20;;;12.70;71.00;;;12.29;54.96;93889.13;5029666;28;20238;-82
2021/05/07 05:25:13;;;;;;;5.40;5.00;;;12.60;70.90;;;12.37;54.68;93885.38;5047750;28;20211;-82
2021/05/07 05:27:40;;;;;;;3.20;3.00;;;12.70;70.80;;;12.35;54.58;93893.47;5051404;28;20731;-81
2021/05/07 05:30:08;;;;;;;1.50;1.40;;;12.70;70.90;;;12.36;54.88;93897.72;5032756;28;20680;-83
2021/05/07 05:32:36;;;;;;;3.33;1.10;;;12.70;71.60;;;12.31;54.75;93884.44;5050793;28;20237;-82
2021/05/07 05:35:05;;;;;;;1.23;1.13;;;12.70;70.60;;;12.32;54.68;93896.56;5035834;28;20190;-82
2021/05/07 05:37:32;;;;;;;10.52;9.63;;;12.70;70.50;;;12.32;54.63;93897.34;5051376;28;20230;-82
2021/05/07 05:39:58;;;;;;;3.35;3.15;;;12.80;70.60;;;12.28;54.70;93888.34;5019129;28;20682;-83
2021/05/07 05:42:29;;;;;;;1.40;1.25;;;12.60;70.50;;;12.33;55.04;93901.59;5036747;28;20225;-83
2021/05/07 05:44:56;;;;;;;1.85;1.00;;;12.70;70.70;;;12.39;54.75;93901.69;5034511;28;20203;-82
2021/05/07 05:47:22;;;;;;;1.00;1.00;;;12.70;70.70;;;12.43;54.84;93893.13;5049907;28;20218;-81
2021/05/07 05:49:55;;;;;;;1.00;1.00;;;12.80;71.00;;;12.47;54.71;93901.38;5037420;28;20281;-82
2021/05/07 05:52:21;;;;;;;0.93;0.93;;;12.80;70.80;;;12.51;54.79;93906.97;5035461;28;20227;-81
2021/05/07 05:54:49;;;;;;;1.15;1.10;;;12.80;70.70;;;12.51;54.44;93894.63;5053019;28;20199;-83
2021/05/07 05:57:15;;;;;;;0.90;0.90;;;12.90;70.70;;;12.47;54.43;93891.66;5041053;28;20228;-81
2021/05/07 05:59:42;;;;;;;1.10;1.00;;;12.80;70.50;;;12.50;54.09;93906.19;5038684;28;20215;-82
2021/05/07 06:02:08;;;;;;;1.08;1.00;;;12.80;70.30;;;12.52;54.32;93898.84;5037441;28;20230;-82
2021/05/07 06:04:35;;;;;;;1.10;1.10;;;12.80;70.50;;;12.54;54.24;93903.91;5038718;28;20664;-81
2021/05/07 06:07:02;;;;;;;1.20;1.10;;;12.90;70.40;;;12.61;54.32;93928.28;5038756;28;20206;-82
2021/05/07 06:09:29;;;;;;;1.08;0.93;;;12.90;70.60;;;12.75;54.42;93928.81;5047330;28;20736;-81
2021/05/07 06:11:55;;;;;;;1.85;1.30;;;13.00;70.80;;;12.90;53.81;93938.88;5047323;28;20199;-81
2021/05/07 06:14:21;;;;;;;0.93;0.93;;;13.00;70.50;;;13.04;53.82;93928.94;5048658;28;20203;-82
2021/05/07 06:17:05;;;;;;;1.38;1.15;;;13.10;70.90;;;13.22;53.53;93920.88;5055670;28;20707;-82
2021/05/07 06:19:32;;;;;;;1.15;1.10;;;13.20;70.60;;;13.36;52.78;93926.66;5055284;28;20218;-81
2021/05/07 06:21:58;;;;;;;1.10;1.10;;;13.30;70.30;;;13.44;52.06;93946.63;5039176;28;20281;-82
2021/05/07 06:24:25;;;;;;;1.00;1.00;;;13.50;69.70;;;13.44;51.36;93942.16;5021641;28;20288;-82
2021/05/07 06:26:51;;;;;;;1.10;1.10;;;13.50;69.40;;;13.48;51.90;93936.41;5040946;28;20599;-81
2021/05/07 06:29:17;;;;;;;1.00;1.00;;;13.60;69.30;;;13.51;52.23;93936.75;5039074;28;20203;-83
2021/05/07 06:31:44;;;;;;;0.88;0.82;;;13.60;69.30;;;13.55;51.82;93947.59;5041395;28;20191;-82
2021/05/07 06:34:11;;;;;;;1.13;1.00;;;13.70;69.40;;;13.61;51.38;93939.56;5055525;28;20242;-83
2021/05/07 06:36:37;;;;;;;1.30;1.20;;;13.70;68.80;;;13.62;51.09;93945.63;5054586;28;20264;-82
2021/05/07 06:39:04;;;;;;;1.15;0.93;;;13.80;68.70;;;13.69;50.98;93950.78;5038509;28;20233;-82
2021/05/07 06:41:32;;;;;;;1.08;1.02;;;13.80;68.60;;;13.63;50.48;93936.69;5035901;28;20203;-83
2021/05/07 06:43:59;;;;;;;1.35;1.00;;;13.80;68.20;;;13.63;50.52;93941.19;5037075;28;20250;-82
2021/05/07 06:46:27;;;;;;;0.90;0.90;;;13.90;68.20;;;13.67;50.95;93947.56;5037461;28;20191;-83
2021/05/07 06:48:53;;;;;;;1.20;1.05;;;13.90;68.30;;;13.71;50.90;93949.50;5037698;28;20309;-83
2021/05/07 06:51:20;;;;;;;1.13;1.00;;;13.90;68.40;;;13.82;50.92;93947.03;5054363;28;20568;-83
2021/05/07 06:53:46;;;;;;;1.95;1.05;;;14.00;68.40;;;13.92;50.89;93963.06;5054444;28;20215;-83
2021/05/07 06:56:15;;;;;;;1.30;1.20;;;14.00;68.40;;;13.95;49.85;93938.84;5053538;28;20206;-83
2021/05/07 06:58:44;;;;;;;0.95;0.95;;;14.10;68.00;;;13.99;50.05;93957.63;5030401;28;20219;-83
2021/05/07 07:01:11;;;;;;;0.90;0.90;;;14.10;67.90;;;14.05;49.97;93952.22;5072451;28;20234;-83
2021/05/07 07:04:08;;;;;;;1.00;1.00;;;14.10;68.00;;;14.11;50.14;93947.84;5023859;28;20227;-82
2021/05/07 07:07:19;;;;;;;1.00;1.00;;;14.20;67.80;;;14.16;50.05;93953.22;5036747;28;20674;-83
2021/05/07 07:10:05;;;;;;;1.00;1.00;;;14.30;67.80;;;14.27;50.05;93959.47;5023750;28;20193;-83
2021/05/07 07:12:50;;;;;;;1.75;1.35;;;14.30;67.70;;;14.36;50.14;93954.59;5052499;28;20222;-83
2021/05/07 07:15:34;;;;;;;0.90;0.90;;;14.50;68.00;;;14.48;50.47;93954.53;5058336;28;20190;-82
2021/05/07 07:18:01;;;;;;;1.20;1.20;;;14.50;68.20;;;14.48;50.19;93949.25;5039452;28;20261;-82
2021/05/07 07:20:31;;;;;;;1.08;1.08;;;14.60;68.10;;;14.51;50.37;93962.75;5039538;28;20214;-82
2021/05/07 07:23:00;;;;;;;1.00;1.00;;;14.60;67.90;;;14.52;50.43;93972.25;5040239;28;20211;-82
2021/05/07 07:25:27;;;;;;;1.02;1.00;;;14.60;68.00;;;14.46;50.29;93969.78;5046261;28;20209;-81
2021/05/07 07:27:53;;;;;;;1.30;1.20;;;14.60;67.90;;;14.43;50.68;93970.25;5037434;28;20269;-81
2021/05/07 07:30:20;;;;;;;1.00;1.00;;;14.70;67.90;;;14.33;50.47;93981.44;5042764;28;20226;-82
2021/05/07 07:32:47;;;;;;;1.45;1.35;;;14.60;67.70;;;14.19;50.67;93975.66;5032439;28;20214;-83
2021/05/07 07:35:21;;;;;;;0.90;0.90;;;14.70;67.70;;;14.06;50.64;93980.19;5035440;28;20211;-82
2021/05/07 07:37:48;;;;;;;1.30;1.20;;;14.50;67.60;;;13.99;50.78;93987.44;5003071;28;20230;-82
2021/05/07 07:40:15;;;;;;;1.27;1.17;;;14.50;67.70;;;13.90;50.84;93984.41;5019326;28;20261;-82
2021/05/07 07:42:42;;;;;;;1.40;1.00;;;14.40;67.70;;;13.83;50.99;93983.72;5002976;28;20215;-82
2021/05/07 07:45:10;;;;;;;1.50;1.20;;;14.30;67.70;;;13.79;50.76;93981.78;5019556;28;20224;-83
2021/05/07 07:47:37;;;;;;;1.55;1.10;;;14.30;67.80;;;13.81;51.22;93988.44;5002431;28;20218;-82
2021/05/07 07:50:06;;;;;;;0.90;0.90;;;14.30;67.90;;;13.84;50.98;93985.34;5035578;28;20198;-82
2021/05/07 07:52:34;;;;;;;1.10;1.10;;;14.20;67.90;;;13.92;50.93;93994.69;5018878;28;20284;-82
2021/05/07 07:55:05;;;;;;;1.00;1.00;;;14.20;68.10;;;14.06;51.28;94003.13;5019317;28;20198;-83
2021/05/07 07:57:32;;;;;;;1.27;1.20;;;14.20;68.40;;;14.21;51.02;93998.13;5018645;28;20705;-83
2021/05/07 07:59:59;;;;;;;1.38;1.27;;;14.20;68.40;;;14.36;50.74;93991.50;5018933;28;20246;-83
2021/05/07 08:02:26;;;;;;;1.00;1.00;;;14.40;68.60;;;14.54;50.21;94004.47;5018872;28;20223;-82
2021/05/07 08:04:54;;;;;;;1.05;1.00;;;14.50;68.50;;;14.65;48.94;93991.47;5018835;28;20282;-82
2021/05/07 08:07:21;;;;;;;2.20;1.30;;;14.60;67.70;;;14.72;48.26;93990.28;5019055;28;20715;-82
2021/05/07 08:09:49;;;;;;;1.10;1.10;;;14.70;67.30;;;14.78;49.00;94000.91;5019114;28;20199;-82
2021/05/07 08:12:15;;;;;;;1.10;1.10;;;14.80;67.50;;;14.76;48.96;93993.25;5002462;28;20246;-82
2021/05/07 08:14:42;;;;;;;1.58;1.05;;;14.80;67.30;;;14.60;49.16;94005.38;5017590;28;20203;-81
2021/05/07 08:17:09;;;;;;;0.90;0.90;;;14.90;67.20;;;14.46;49.97;94030.47;5034551;28;20227;-82
2021/05/07 08:19:42;;;;;;;1.25;1.15;;;14.80;67.30;;;14.20;50.85;94022.09;5031456;28;20340;-82
2021/05/07 08:22:08;;;;;;;1.02;1.00;;;14.80;67.60;;;14.03;51.08;94019.41;5037080;28;20229;-82
2021/05/07 08:24:35;;;;;;;1.20;1.20;;;14.70;67.70;;;13.89;52.16;94027.59;5052882;28;20219;-82
2021/05/07 08:27:02;;;;;;;1.30;1.20;;;14.60;68.30;;;13.76;52.81;94044.47;5033167;28;20223;-80
2021/05/07 08:29:28;;;;;;;1.15;1.13;;;14.50;68.70;;;13.63;52.61;94057.91;5033887;28;20203;-82
2021/05/07 08:31:55;;;;;;;1.45;1.20;;;14.40;68.60;;;13.48;52.64;94057.59;5017330;28;20214;-81
2021/05/07 08:34:21;;;;;;;2.90;1.10;;;14.20;68.50;;;13.32;53.28;94067.75;5017656;28;20318;-80
2021/05/07 08:36:49;;;;;;;1.40;1.30;;;14.10;69.20;;;13.21;53.82;94073.84;5034225;28;20576;-82
2021/05/07 08:39:16;;;;;;;1.70;1.60;;;14.00;69.20;;;13.01;53.99;94074.97;5018138;28;20222;-81
2021/05/07 08:41:49;;;;;;;1.40;1.30;;;13.90;69.40;;;12.82;54.84;94090.81;5032639;28;20245;-81
2021/05/07 08:44:18;;;;;;;2.17;1.20;;;13.70;70.20;;;12.59;55.93;94099.47;5018011;28;20206;-80
2021/05/07 08:46:45;;;;;;;0.90;0.90;;;13.50;70.20;;;12.38;56.73;94097.31;5034436;28;20211;-81
2021/05/07 08:49:18;;;;;;;1.10;1.10;;;13.40;70.50;;;12.25;56.96;94106.19;5017864;28;20203;-82
2021/05/07 08:51:44;;;;;;;1.55;1.10;;;13.30;71.20;;;12.12;57.98;94102.72;5034133;28;20569;-80
2021/05/07 08:54:12;;;;;;;1.15;1.10;;;13.10;71.30;;;12.03;57.66;94101.41;5018027;28;20223;-81
2021/05/07 08:56:41;;;;;;;1.30;1.15;;;12.90;71.40;;;11.99;58.03;94103.66;5018758;28;20234;-81
2021/05/07 08:59:08;;;;;;;1.23;1.20;;;12.80;72.00;;;11.99;58.67;94108.94;5017510;28;20238;-82
2021/05/07 09:01:47;;;;;;;1.30;1.20;;;12.80;72.50;;;12.06;58.56;94110.66;5025521;28;20262;-80
2021/05/07 09:04:17;;;;;;;1.10;1.10;;;12.70;73.20;;;12.07;60.06;94107.03;5017730;28;20222;-82
2021/05/07 09:06:53;;;;;;;1.30;1.20;;;12.70;73.30;;;12.06;59.52;94110.66;5018194;28;20249;-82
2021/05/07 09:09:31;;;;;;;1.30;1.20;;;12.70;73.20;;;12.11;58.79;94106.38;5018651;28;20196;-82
2021/05/07 09:12:01;;;;;;;1.50;1.40;;;12.70;73.30;;;12.18;58.74;94111.53;5018033;28;20307;-81
2021/05/07 09:14:29;;;;;;;1.15;1.15;;;12.80;73.50;;;12.23;58.87;94110.88;5017757;28;20203;-82
2021/05/07 09:17:22;;;;;;;1.10;1.10;;;12.70;73.50;;;12.32;59.05;94105.09;5006965;28;20221;-82
2021/05/07 09:20:12;;;;;;;1.10;1.10;;;12.80;73.60;;;12.45;58.76;94106.75;5033926;28;20222;-81
2021/05/07 09:22:42;;;;;;;0.98;0.98;;;12.80;73.80;;;12.60;58.36;94098.44;5001423;28;20231;-82
2021/05/07 09:25:17;;;;;;;1.30;1.23;;;13.00;73.60;;;12.71;58.67;94098.72;5001389;28;20343;-82
2021/05/07 09:27:45;;;;;;;1.00;1.00;;;13.00;73.60;;;12.87;58.26;94087.53;5017089;28;20226;-82
2021/05/07 09:30:20;;;;;;;1.00;1.00;;;13.10;73.50;;;13.06;58.06;94096.16;5050470;28;20841;-81
2021/05/07 09:32:52;;;;;;;1.25;1.15;;;13.30;73.80;;;13.20;57.75;94094.09;5017285;28;20233;-82
2021/05/07 09:35:24;;;;;;;1.10;1.10;;;13.40;73.50;;;13.31;57.15;94100.38;5017523;28;20582;-82
2021/05/07 09:38:01;;;;;;;1.40;1.30;;;13.50;73.10;;;13.46;57.07;94089.41;5017392;28;20227;-82
2021/05/07 09:40:28;;;;;;;1.08;1.08;;;13.60;73.10;;;13.66;57.08;94096.16;5017520;28;20225;-81
2021/05/07 09:43:10;;;;;;;1.33;1.23;;;13.80;73.40;;;13.88;56.26;94093.75;5017017;28;20666;-82
2021/05/07 09:45:40;;;;;;;1.20;1.10;;;13.90;72.50;;;13.99;55.54;94092.09;5017636;28;20286;-82
2021/05/07 09:48:25;;;;;;;1.10;1.10;;;14.00;72.20;;;13.96;54.89;94101.28;5017508;28;20689;-83
2021/05/07 09:51:02;;;;;;;1.00;1.00;;;14.20;71.60;;;13.94;54.82;94098.09;5017050;28;20568;-82
2021/05/07 09:53:37;;;;;;;1.00;1.00;;;14.20;71.40;;;13.88;54.20;94093.75;5033730;28;20219;-82
2021/05/07 09:56:15;;;;;;;1.27;1.17;;;14.20;70.90;;;13.85;54.27;94089.72;5033558;28;20669;-82
2021/05/07 09:58:43;;;;;;;1.17;1.08;;;14.20;70.20;;;13.90;54.32;94095.09;5017457;28;20234;-82
2021/05/07 10:01:11;;;;;;;1.10;1.10;;;14.20;70.80;;;13.91;54.19;94096.72;5035144;28;20253;-82
2021/05/07 10:03:39;;;;;;;2.40;1.30;;;14.20;70.80;;;13.92;53.89;94085.13;5035440;28;20214;-83
2021/05/07 10:06:05;;;;;;;1.30;1.20;;;14.20;70.50;;;13.99;54.02;94090.28;5031632;28;20653;-83
2021/05/07 10:08:45;;;;;;;1.20;1.10;;;14.20;70.60;;;14.11;54.01;94092.06;5031592;28;20215;-82
2021/05/07 10:11:18;;;;;;;1.13;1.13;;;14.20;70.70;;;14.21;53.74;94103.63;5031922;28;20195;-82
2021/05/07 10:13:45;;;;;;;0.98;0.98;;;14.30;70.70;;;14.39;53.13;94099.19;5047926;28;20215;-82
2021/05/07 10:16:12;;;;;;;1.10;1.10;;;14.40;70.90;;;14.50;51.62;94089.63;5048053;28;20203;-82
2021/05/07 10:18:40;;;;;;;1.00;1.00;;;14.50;69.80;;;14.60;51.12;94087.19;5031401;28;20231;-82
2021/05/07 10:21:11;;;;;;;1.10;1.10;;;14.50;69.20;;;14.66;51.33;94096.81;5033370;28;20207;-82
2021/05/07 10:23:51;;;;;;;1.10;1.00;;;14.60;69.50;;;14.73;51.78;94088.75;5052880;28;20222;-82
2021/05/07 10:26:17;;;;;;;1.00;1.00;;;14.70;69.30;;;14.72;51.01;94095.06;5036476;28;20209;-81
2021/05/07 10:28:49;;;;;;;1.00;1.00;;;14.80;69.00;;;14.75;50.88;94107.78;5036455;28;20222;-82
2021/05/07 10:31:17;;;;;;;1.10;1.10;;;14.80;69.20;;;14.81;50.99;94109.47;5032930;28;20203;-82